sensor_id;sensor_type;location;lat;lon;timestamp;P1;durP1;ratioP1;P2;durP2;ratioP2
35330;SDS011;21441;52.190;20.910;2023-03-01T00:01:02;77.80;;;39.42;;
35330;SDS011;21441;52.190;20.910;2023-03-01T00:03:31;59.17;;;30.45;;
35330;SDS011;21441;52.190;20.910;2023-03-01T00:06:00;74.05;;;34.38;;
35330;SDS011;21441;52.190;20.910;2023-03-01T00:08:28;63.30;;;32.65;;
35330;SDS011;21441;52.190;20.910;2023-03-01T00:10:59;55.65;;;26.73;;
35330;SDS011;21441;52.190;20.910;2023-03-01T00:13:28;59.42;;;30.25;;
35330;SDS011;21441;52.190;20.910;2023-03-01T00:15:55;64.22;;;31.25;;
35330;SDS011;21441;52.190;20.910;2023-03-01T00:18:23;57.90;;;31.50;;
35330;SDS011;21441;52.190;20.910;2023-03-01T00:20:50;72.93;;;37.92;;
35330;SDS011;21441;52.190;20.910;2023-03-01T00:23:19;45.65;;;23.75;;
35330;SDS011;21441;52.190;20.910;2023-03-01T00:25:47;60.67;;;29.50;;
35330;SDS011;21441;52.190;20.910;2023-03-01T00:28:15;49.20;;;26.40;;
35330;SDS011;21441;52.190;20.910;2023-03-01T00:30:43;50.88;;;26.48;;
35330;SDS011;21441;52.190;20.910;2023-03-01T00:33:10;57.55;;;29.15;;
35330;SDS011;21441;52.190;20.910;2023-03-01T00:35:38;51.25;;;24.13;;
35330;SDS011;21441;52.190;20.910;2023-03-01T00:38:05;39.90;;;23.48;;
35330;SDS011;21441;52.190;20.910;2023-03-01T00:40:35;57.95;;;30.92;;
35330;SDS011;21441;52.190;20.910;2023-03-01T00:43:03;67.93;;;31.30;;
35330;SDS011;21441;52.190;20.910;2023-03-01T00:45:30;52.83;;;28.05;;
35330;SDS011;21441;52.190;20.910;2023-03-01T00:47:59;59.37;;;30.00;;
35330;SDS011;21441;52.190;20.910;2023-03-01T00:50:27;60.17;;;32.35;;
35330;SDS011;21441;52.190;20.910;2023-03-01T00:52:55;58.08;;;28.25;;
35330;SDS011;21441;52.190;20.910;2023-03-01T00:55:23;47.45;;;24.67;;
35330;SDS011;21441;52.190;20.910;2023-03-01T00:57:52;45.72;;;22.77;;
35330;SDS011;21441;52.190;20.910;2023-03-01T01:00:20;65.85;;;33.85;;
35330;SDS011;21441;52.190;20.910;2023-03-01T01:02:48;58.65;;;29.00;;
35330;SDS011;21441;52.190;20.910;2023-03-01T01:05:15;57.10;;;31.23;;
35330;SDS011;21441;52.190;20.910;2023-03-01T01:07:46;65.55;;;32.65;;
35330;SDS011;21441;52.190;20.910;2023-03-01T01:10:14;62.60;;;29.52;;
35330;SDS011;21441;52.190;20.910;2023-03-01T01:12:43;58.17;;;28.83;;
35330;SDS011;21441;52.190;20.910;2023-03-01T01:15:13;59.35;;;29.88;;
35330;SDS011;21441;52.190;20.910;2023-03-01T01:17:42;58.63;;;30.10;;
35330;SDS011;21441;52.190;20.910;2023-03-01T01:20:10;46.45;;;24.92;;
35330;SDS011;21441;52.190;20.910;2023-03-01T01:22:38;48.25;;;26.40;;
35330;SDS011;21441;52.190;20.910;2023-03-01T01:25:05;47.72;;;24.80;;
35330;SDS011;21441;52.190;20.910;2023-03-01T01:27:33;54.83;;;26.95;;
35330;SDS011;21441;52.190;20.910;2023-03-01T01:30:00;46.58;;;23.17;;
35330;SDS011;21441;52.190;20.910;2023-03-01T01:32:29;54.42;;;24.80;;
35330;SDS011;21441;52.190;20.910;2023-03-01T01:34:57;46.00;;;24.60;;
35330;SDS011;21441;52.190;20.910;2023-03-01T01:37:24;62.13;;;30.58;;
35330;SDS011;21441;52.190;20.910;2023-03-01T01:39:56;54.15;;;27.38;;
35330;SDS011;21441;52.190;20.910;2023-03-01T01:42:25;61.58;;;28.55;;
35330;SDS011;21441;52.190;20.910;2023-03-01T01:47:55;54.75;;;27.42;;
35330;SDS011;21441;52.190;20.910;2023-03-01T01:50:25;60.28;;;30.33;;
35330;SDS011;21441;52.190;20.910;2023-03-01T01:53:04;62.92;;;30.80;;
35330;SDS011;21441;52.190;20.910;2023-03-01T01:55:36;62.70;;;30.73;;
35330;SDS011;21441;52.190;20.910;2023-03-01T01:58:06;64.35;;;30.65;;
35330;SDS011;21441;52.190;20.910;2023-03-01T02:00:37;62.92;;;31.70;;
35330;SDS011;21441;52.190;20.910;2023-03-01T02:03:08;58.75;;;29.25;;
35330;SDS011;21441;52.190;20.910;2023-03-01T02:05:40;60.85;;;30.42;;
35330;SDS011;21441;52.190;20.910;2023-03-01T02:08:14;54.40;;;30.20;;
35330;SDS011;21441;52.190;20.910;2023-03-01T02:10:45;64.20;;;30.40;;
35330;SDS011;21441;52.190;20.910;2023-03-01T02:13:13;58.15;;;30.73;;
35330;SDS011;21441;52.190;20.910;2023-03-01T02:15:40;52.28;;;26.20;;
35330;SDS011;21441;52.190;20.910;2023-03-01T02:18:11;52.92;;;24.65;;
35330;SDS011;21441;52.190;20.910;2023-03-01T02:20:44;61.85;;;28.75;;
35330;SDS011;21441;52.190;20.910;2023-03-01T02:23:18;65.47;;;29.70;;
35330;SDS011;21441;52.190;20.910;2023-03-01T02:25:49;56.72;;;28.42;;
35330;SDS011;21441;52.190;20.910;2023-03-01T02:28:26;40.65;;;21.45;;
35330;SDS011;21441;52.190;20.910;2023-03-01T02:30:57;49.13;;;24.20;;
35330;SDS011;21441;52.190;20.910;2023-03-01T02:33:42;68.10;;;33.50;;
35330;SDS011;21441;52.190;20.910;2023-03-01T02:36:12;50.22;;;26.20;;
35330;SDS011;21441;52.190;20.910;2023-03-01T02:38:44;44.65;;;24.88;;
35330;SDS011;21441;52.190;20.910;2023-03-01T02:41:11;54.45;;;28.83;;
35330;SDS011;21441;52.190;20.910;2023-03-01T02:43:43;58.78;;;27.88;;
35330;SDS011;21441;52.190;20.910;2023-03-01T02:46:14;51.55;;;24.33;;
35330;SDS011;21441;52.190;20.910;2023-03-01T02:48:43;62.10;;;27.23;;
35330;SDS011;21441;52.190;20.910;2023-03-01T02:51:18;46.08;;;22.70;;
35330;SDS011;21441;52.190;20.910;2023-03-01T02:54:05;60.15;;;31.25;;
35330;SDS011;21441;52.190;20.910;2023-03-01T02:56:37;69.07;;;30.73;;
35330;SDS011;21441;52.190;20.910;2023-03-01T02:59:06;52.70;;;26.40;;
35330;SDS011;21441;52.190;20.910;2023-03-01T03:01:34;60.70;;;29.50;;
35330;SDS011;21441;52.190;20.910;2023-03-01T03:04:04;59.47;;;30.27;;
35330;SDS011;21441;52.190;20.910;2023-03-01T03:06:31;73.88;;;34.28;;
35330;SDS011;21441;52.190;20.910;2023-03-01T03:08:59;66.03;;;33.38;;
35330;SDS011;21441;52.190;20.910;2023-03-01T03:11:27;53.00;;;28.50;;
35330;SDS011;21441;52.190;20.910;2023-03-01T03:13:54;57.85;;;30.30;;
35330;SDS011;21441;52.190;20.910;2023-03-01T03:16:23;57.85;;;27.73;;
35330;SDS011;21441;52.190;20.910;2023-03-01T03:18:50;56.30;;;31.60;;
35330;SDS011;21441;52.190;20.910;2023-03-01T03:21:17;59.83;;;28.95;;
35330;SDS011;21441;52.190;20.910;2023-03-01T03:23:45;64.72;;;30.98;;
35330;SDS011;21441;52.190;20.910;2023-03-01T03:26:12;46.90;;;26.77;;
35330;SDS011;21441;52.190;20.910;2023-03-01T03:28:40;59.15;;;28.33;;
35330;SDS011;21441;52.190;20.910;2023-03-01T03:31:08;49.78;;;24.70;;
35330;SDS011;21441;52.190;20.910;2023-03-01T03:33:37;41.47;;;19.17;;
35330;SDS011;21441;52.190;20.910;2023-03-01T03:36:04;49.03;;;25.60;;
35330;SDS011;21441;52.190;20.910;2023-03-01T03:38:32;42.78;;;21.95;;
35330;SDS011;21441;52.190;20.910;2023-03-01T03:41:00;44.17;;;21.80;;
35330;SDS011;21441;52.190;20.910;2023-03-01T03:43:31;58.10;;;27.63;;
35330;SDS011;21441;52.190;20.910;2023-03-01T03:46:00;54.00;;;28.93;;
35330;SDS011;21441;52.190;20.910;2023-03-01T03:48:31;50.78;;;25.52;;
35330;SDS011;21441;52.190;20.910;2023-03-01T03:51:01;71.63;;;33.77;;
35330;SDS011;21441;52.190;20.910;2023-03-01T03:53:31;60.05;;;32.03;;
35330;SDS011;21441;52.190;20.910;2023-03-01T03:55:58;62.20;;;30.95;;
35330;SDS011;21441;52.190;20.910;2023-03-01T03:58:26;59.85;;;30.70;;
35330;SDS011;21441;52.190;20.910;2023-03-01T04:00:54;57.35;;;28.38;;
35330;SDS011;21441;52.190;20.910;2023-03-01T04:03:23;55.00;;;24.10;;
35330;SDS011;21441;52.190;20.910;2023-03-01T04:05:51;54.38;;;25.85;;
35330;SDS011;21441;52.190;20.910;2023-03-01T04:08:21;66.97;;;30.98;;
35330;SDS011;21441;52.190;20.910;2023-03-01T04:13:19;32.72;;;17.77;;
35330;SDS011;21441;52.190;20.910;2023-03-01T04:15:48;48.20;;;24.23;;
35330;SDS011;21441;52.190;20.910;2023-03-01T04:18:17;66.50;;;30.75;;
35330;SDS011;21441;52.190;20.910;2023-03-01T04:20:46;66.35;;;33.47;;
35330;SDS011;21441;52.190;20.910;2023-03-01T04:23:14;64.95;;;32.33;;
35330;SDS011;21441;52.190;20.910;2023-03-01T04:25:47;64.50;;;31.10;;
35330;SDS011;21441;52.190;20.910;2023-03-01T04:28:21;58.65;;;30.10;;
35330;SDS011;21441;52.190;20.910;2023-03-01T04:30:50;57.35;;;26.75;;
35330;SDS011;21441;52.190;20.910;2023-03-01T04:33:18;64.47;;;32.35;;
35330;SDS011;21441;52.190;20.910;2023-03-01T04:35:46;52.60;;;27.17;;
35330;SDS011;21441;52.190;20.910;2023-03-01T04:38:15;57.30;;;28.27;;
35330;SDS011;21441;52.190;20.910;2023-03-01T04:40:42;62.40;;;31.80;;
35330;SDS011;21441;52.190;20.910;2023-03-01T04:43:11;56.22;;;28.27;;
35330;SDS011;21441;52.190;20.910;2023-03-01T04:45:40;62.70;;;26.55;;
35330;SDS011;21441;52.190;20.910;2023-03-01T04:48:08;36.50;;;22.85;;
35330;SDS011;21441;52.190;20.910;2023-03-01T04:50:35;47.58;;;25.45;;
35330;SDS011;21441;52.190;20.910;2023-03-01T04:53:03;57.95;;;27.58;;
35330;SDS011;21441;52.190;20.910;2023-03-01T04:55:30;60.83;;;27.20;;
35330;SDS011;21441;52.190;20.910;2023-03-01T04:57:58;36.72;;;20.45;;
35330;SDS011;21441;52.190;20.910;2023-03-01T05:00:27;53.90;;;24.90;;
35330;SDS011;21441;52.190;20.910;2023-03-01T05:02:55;43.30;;;23.77;;
35330;SDS011;21441;52.190;20.910;2023-03-01T05:05:25;47.10;;;27.08;;
35330;SDS011;21441;52.190;20.910;2023-03-01T05:07:53;52.63;;;25.95;;
35330;SDS011;21441;52.190;20.910;2023-03-01T05:10:22;53.17;;;25.00;;
35330;SDS011;21441;52.190;20.910;2023-03-01T05:12:51;47.63;;;26.42;;
35330;SDS011;21441;52.190;20.910;2023-03-01T05:15:18;57.45;;;28.75;;
35330;SDS011;21441;52.190;20.910;2023-03-01T05:17:49;57.30;;;25.17;;
35330;SDS011;21441;52.190;20.910;2023-03-01T05:20:16;38.70;;;23.05;;
35330;SDS011;21441;52.190;20.910;2023-03-01T05:22:48;62.47;;;30.10;;
35330;SDS011;21441;52.190;20.910;2023-03-01T05:25:16;37.22;;;19.73;;
35330;SDS011;21441;52.190;20.910;2023-03-01T05:27:43;35.42;;;20.90;;
35330;SDS011;21441;52.190;20.910;2023-03-01T05:30:11;40.60;;;21.40;;
35330;SDS011;21441;52.190;20.910;2023-03-01T05:32:44;48.88;;;24.27;;
35330;SDS011;21441;52.190;20.910;2023-03-01T05:35:14;49.40;;;23.65;;
35330;SDS011;21441;52.190;20.910;2023-03-01T05:37:44;49.20;;;25.02;;
35330;SDS011;21441;52.190;20.910;2023-03-01T05:40:13;59.30;;;29.75;;
35330;SDS011;21441;52.190;20.910;2023-03-01T05:42:43;52.58;;;28.10;;
35330;SDS011;21441;52.190;20.910;2023-03-01T05:45:11;40.83;;;20.25;;
35330;SDS011;21441;52.190;20.910;2023-03-01T05:47:39;43.13;;;21.67;;
35330;SDS011;21441;52.190;20.910;2023-03-01T05:50:10;44.30;;;20.52;;
35330;SDS011;21441;52.190;20.910;2023-03-01T05:52:40;60.42;;;28.10;;
35330;SDS011;21441;52.190;20.910;2023-03-01T05:55:08;55.03;;;23.50;;
35330;SDS011;21441;52.190;20.910;2023-03-01T05:57:36;56.38;;;28.45;;
35330;SDS011;21441;52.190;20.910;2023-03-01T06:00:03;57.88;;;29.83;;
35330;SDS011;21441;52.190;20.910;2023-03-01T06:02:32;63.58;;;32.08;;
35330;SDS011;21441;52.190;20.910;2023-03-01T06:04:59;58.22;;;29.23;;
35330;SDS011;21441;52.190;20.910;2023-03-01T06:07:27;55.75;;;27.77;;
35330;SDS011;21441;52.190;20.910;2023-03-01T06:09:55;59.03;;;28.20;;
35330;SDS011;21441;52.190;20.910;2023-03-01T06:12:23;57.72;;;29.08;;
35330;SDS011;21441;52.190;20.910;2023-03-01T06:14:50;57.25;;;27.08;;
35330;SDS011;21441;52.190;20.910;2023-03-01T06:17:18;58.97;;;30.95;;
35330;SDS011;21441;52.190;20.910;2023-03-01T06:19:46;58.53;;;27.00;;
35330;SDS011;21441;52.190;20.910;2023-03-01T06:22:14;53.35;;;25.40;;
35330;SDS011;21441;52.190;20.910;2023-03-01T06:24:41;51.30;;;27.35;;
35330;SDS011;21441;52.190;20.910;2023-03-01T06:27:10;35.95;;;21.55;;
35330;SDS011;21441;52.190;20.910;2023-03-01T06:29:37;43.85;;;18.70;;
35330;SDS011;21441;52.190;20.910;2023-03-01T06:32:05;43.55;;;24.83;;
35330;SDS011;21441;52.190;20.910;2023-03-01T06:34:33;51.17;;;25.65;;
35330;SDS011;21441;52.190;20.910;2023-03-01T06:37:01;48.10;;;25.15;;
35330;SDS011;21441;52.190;20.910;2023-03-01T06:39:30;43.50;;;22.50;;
35330;SDS011;21441;52.190;20.910;2023-03-01T06:41:58;47.10;;;22.50;;
35330;SDS011;21441;52.190;20.910;2023-03-01T06:44:27;35.88;;;20.65;;
35330;SDS011;21441;52.190;20.910;2023-03-01T06:46:55;56.28;;;28.45;;
35330;SDS011;21441;52.190;20.910;2023-03-01T06:49:22;42.80;;;21.50;;
35330;SDS011;21441;52.190;20.910;2023-03-01T06:51:50;56.67;;;24.00;;
35330;SDS011;21441;52.190;20.910;2023-03-01T06:54:17;38.60;;;21.75;;
35330;SDS011;21441;52.190;20.910;2023-03-01T06:56:48;46.25;;;23.90;;
35330;SDS011;21441;52.190;20.910;2023-03-01T06:59:15;37.67;;;19.70;;
35330;SDS011;21441;52.190;20.910;2023-03-01T07:01:45;39.42;;;20.95;;
35330;SDS011;21441;52.190;20.910;2023-03-01T07:04:12;41.97;;;22.25;;
35330;SDS011;21441;52.190;20.910;2023-03-01T07:06:40;45.80;;;23.45;;
35330;SDS011;21441;52.190;20.910;2023-03-01T07:09:07;37.95;;;22.15;;
35330;SDS011;21441;52.190;20.910;2023-03-01T07:11:35;45.10;;;24.70;;
35330;SDS011;21441;52.190;20.910;2023-03-01T07:14:02;49.63;;;27.60;;
35330;SDS011;21441;52.190;20.910;2023-03-01T07:16:30;47.17;;;25.15;;
35330;SDS011;21441;52.190;20.910;2023-03-01T07:18:58;47.20;;;26.17;;
35330;SDS011;21441;52.190;20.910;2023-03-01T07:21:26;50.53;;;28.10;;
35330;SDS011;21441;52.190;20.910;2023-03-01T07:23:53;44.00;;;21.60;;
35330;SDS011;21441;52.190;20.910;2023-03-01T07:26:20;49.83;;;25.42;;
35330;SDS011;21441;52.190;20.910;2023-03-01T07:28:48;44.50;;;22.77;;
35330;SDS011;21441;52.190;20.910;2023-03-01T07:31:15;45.90;;;23.95;;
35330;SDS011;21441;52.190;20.910;2023-03-01T07:33:42;42.05;;;21.58;;
35330;SDS011;21441;52.190;20.910;2023-03-01T07:36:11;39.90;;;21.35;;
35330;SDS011;21441;52.190;20.910;2023-03-01T07:38:38;44.90;;;24.42;;
35330;SDS011;21441;52.190;20.910;2023-03-01T07:41:06;43.28;;;25.60;;
35330;SDS011;21441;52.190;20.910;2023-03-01T07:43:33;39.50;;;20.33;;
35330;SDS011;21441;52.190;20.910;2023-03-01T07:46:01;35.85;;;18.95;;
35330;SDS011;21441;52.190;20.910;2023-03-01T07:48:29;48.47;;;25.02;;
35330;SDS011;21441;52.190;20.910;2023-03-01T07:50:58;45.30;;;25.48;;
35330;SDS011;21441;52.190;20.910;2023-03-01T07:53:27;38.17;;;19.17;;
35330;SDS011;21441;52.190;20.910;2023-03-01T07:56:03;36.10;;;19.73;;
35330;SDS011;21441;52.190;20.910;2023-03-01T07:58:31;45.28;;;24.80;;
35330;SDS011;21441;52.190;20.910;2023-03-01T08:01:01;44.75;;;22.67;;
35330;SDS011;21441;52.190;20.910;2023-03-01T08:03:29;49.08;;;24.85;;
35330;SDS011;21441;52.190;20.910;2023-03-01T08:05:58;44.55;;;24.42;;
35330;SDS011;21441;52.190;20.910;2023-03-01T08:08:28;42.70;;;22.02;;
35330;SDS011;21441;52.190;20.910;2023-03-01T08:10:56;45.40;;;21.80;;
35330;SDS011;21441;52.190;20.910;2023-03-01T08:13:23;37.10;;;21.55;;
35330;SDS011;21441;52.190;20.910;2023-03-01T08:15:51;41.05;;;22.75;;
35330;SDS011;21441;52.190;20.910;2023-03-01T08:18:19;40.03;;;20.35;;
35330;SDS011;21441;52.190;20.910;2023-03-01T08:20:48;37.13;;;21.27;;
35330;SDS011;21441;52.190;20.910;2023-03-01T08:23:15;39.08;;;21.08;;
35330;SDS011;21441;52.190;20.910;2023-03-01T08:25:44;32.75;;;20.33;;
35330;SDS011;21441;52.190;20.910;2023-03-01T08:28:11;36.78;;;19.75;;
35330;SDS011;21441;52.190;20.910;2023-03-01T08:30:39;35.80;;;19.58;;
35330;SDS011;21441;52.190;20.910;2023-03-01T08:33:06;37.15;;;20.52;;
35330;SDS011;21441;52.190;20.910;2023-03-01T08:35:33;37.17;;;20.13;;
35330;SDS011;21441;52.190;20.910;2023-03-01T08:38:01;43.10;;;22.27;;
35330;SDS011;21441;52.190;20.910;2023-03-01T08:40:28;36.17;;;19.88;;
35330;SDS011;21441;52.190;20.910;2023-03-01T08:42:57;35.88;;;19.95;;
35330;SDS011;21441;52.190;20.910;2023-03-01T08:45:25;36.10;;;20.02;;
35330;SDS011;21441;52.190;20.910;2023-03-01T08:47:52;36.65;;;19.95;;
35330;SDS011;21441;52.190;20.910;2023-03-01T08:50:20;31.98;;;18.85;;
35330;SDS011;21441;52.190;20.910;2023-03-01T08:52:49;33.65;;;18.42;;
35330;SDS011;21441;52.190;20.910;2023-03-01T08:55:17;31.98;;;19.15;;
35330;SDS011;21441;52.190;20.910;2023-03-01T08:57:44;33.15;;;19.08;;
35330;SDS011;21441;52.190;20.910;2023-03-01T09:02:42;32.10;;;16.83;;
35330;SDS011;21441;52.190;20.910;2023-03-01T09:05:10;30.13;;;19.25;;
35330;SDS011;21441;52.190;20.910;2023-03-01T09:07:38;38.63;;;20.65;;
35330;SDS011;21441;52.190;20.910;2023-03-01T09:10:06;37.40;;;20.05;;
35330;SDS011;21441;52.190;20.910;2023-03-01T09:12:34;34.58;;;18.77;;
35330;SDS011;21441;52.190;20.910;2023-03-01T09:15:02;32.38;;;18.20;;
35330;SDS011;21441;52.190;20.910;2023-03-01T09:17:31;32.85;;;18.00;;
35330;SDS011;21441;52.190;20.910;2023-03-01T09:19:58;33.40;;;19.45;;
35330;SDS011;21441;52.190;20.910;2023-03-01T09:22:26;33.13;;;17.88;;
35330;SDS011;21441;52.190;20.910;2023-03-01T09:24:54;37.88;;;18.70;;
35330;SDS011;21441;52.190;20.910;2023-03-01T09:27:22;30.98;;;17.55;;
35330;SDS011;21441;52.190;20.910;2023-03-01T09:29:50;27.58;;;15.32;;
35330;SDS011;21441;52.190;20.910;2023-03-01T09:32:17;30.30;;;17.73;;
35330;SDS011;21441;52.190;20.910;2023-03-01T09:34:46;26.13;;;16.65;;
35330;SDS011;21441;52.190;20.910;2023-03-01T09:37:31;28.55;;;16.40;;
35330;SDS011;21441;52.190;20.910;2023-03-01T09:39:59;25.75;;;16.48;;
35330;SDS011;21441;52.190;20.910;2023-03-01T09:42:27;26.33;;;16.02;;
35330;SDS011;21441;52.190;20.910;2023-03-01T09:44:59;26.10;;;14.50;;
35330;SDS011;21441;52.190;20.910;2023-03-01T09:47:30;27.83;;;16.35;;
35330;SDS011;21441;52.190;20.910;2023-03-01T09:50:03;24.38;;;14.88;;
35330;SDS011;21441;52.190;20.910;2023-03-01T09:52:37;27.73;;;15.27;;
35330;SDS011;21441;52.190;20.910;2023-03-01T09:55:11;25.90;;;14.88;;
35330;SDS011;21441;52.190;20.910;2023-03-01T10:00:13;25.40;;;14.68;;
35330;SDS011;21441;52.190;20.910;2023-03-01T10:02:49;26.17;;;14.00;;
35330;SDS011;21441;52.190;20.910;2023-03-01T10:05:29;19.58;;;11.57;;
35330;SDS011;21441;52.190;20.910;2023-03-01T10:08:13;20.58;;;13.25;;
35330;SDS011;21441;52.190;20.910;2023-03-01T10:10:59;21.60;;;13.45;;
35330;SDS011;21441;52.190;20.910;2023-03-01T10:13:29;21.38;;;12.50;;
35330;SDS011;21441;52.190;20.910;2023-03-01T10:16:05;16.80;;;9.63;;
35330;SDS011;21441;52.190;20.910;2023-03-01T10:18:40;20.08;;;12.05;;
35330;SDS011;21441;52.190;20.910;2023-03-01T10:21:14;19.05;;;11.57;;
35330;SDS011;21441;52.190;20.910;2023-03-01T10:23:44;19.38;;;10.95;;
35330;SDS011;21441;52.190;20.910;2023-03-01T10:26:20;18.17;;;11.38;;
35330;SDS011;21441;52.190;20.910;2023-03-01T10:28:57;20.38;;;11.32;;
35330;SDS011;21441;52.190;20.910;2023-03-01T10:31:33;18.88;;;12.30;;
35330;SDS011;21441;52.190;20.910;2023-03-01T10:34:10;20.85;;;12.05;;
35330;SDS011;21441;52.190;20.910;2023-03-01T10:36:41;18.83;;;10.98;;
35330;SDS011;21441;52.190;20.910;2023-03-01T10:39:13;17.77;;;10.90;;
35330;SDS011;21441;52.190;20.910;2023-03-01T10:44:36;15.85;;;10.35;;
35330;SDS011;21441;52.190;20.910;2023-03-01T10:47:12;17.75;;;12.02;;
35330;SDS011;21441;52.190;20.910;2023-03-01T10:49:53;23.77;;;12.97;;
35330;SDS011;21441;52.190;20.910;2023-03-01T10:52:28;16.85;;;11.75;;
35330;SDS011;21441;52.190;20.910;2023-03-01T10:54:59;17.10;;;12.30;;
35330;SDS011;21441;52.190;20.910;2023-03-01T10:57:33;17.42;;;11.93;;
35330;SDS011;21441;52.190;20.910;2023-03-01T11:00:19;18.42;;;13.10;;
35330;SDS011;21441;52.190;20.910;2023-03-01T11:03:01;17.50;;;12.48;;
35330;SDS011;21441;52.190;20.910;2023-03-01T11:05:30;16.17;;;12.15;;
35330;SDS011;21441;52.190;20.910;2023-03-01T11:08:01;17.13;;;12.20;;
35330;SDS011;21441;52.190;20.910;2023-03-01T11:10:31;18.48;;;12.30;;
35330;SDS011;21441;52.190;20.910;2023-03-01T11:13:06;16.85;;;12.05;;
35330;SDS011;21441;52.190;20.910;2023-03-01T11:15:35;17.27;;;12.68;;
35330;SDS011;21441;52.190;20.910;2023-03-01T11:18:03;18.88;;;12.50;;
35330;SDS011;21441;52.190;20.910;2023-03-01T11:20:31;18.27;;;12.80;;
35330;SDS011;21441;52.190;20.910;2023-03-01T11:23:03;17.08;;;13.38;;
35330;SDS011;21441;52.190;20.910;2023-03-01T11:25:34;15.90;;;11.15;;
35330;SDS011;21441;52.190;20.910;2023-03-01T11:28:05;17.65;;;12.15;;
35330;SDS011;21441;52.190;20.910;2023-03-01T11:30:38;16.23;;;11.68;;
35330;SDS011;21441;52.190;20.910;2023-03-01T11:33:13;14.38;;;10.88;;
35330;SDS011;21441;52.190;20.910;2023-03-01T11:35:49;16.40;;;11.73;;
35330;SDS011;21441;52.190;20.910;2023-03-01T11:38:24;15.23;;;11.30;;
35330;SDS011;21441;52.190;20.910;2023-03-01T11:40:54;13.98;;;11.10;;
35330;SDS011;21441;52.190;20.910;2023-03-01T11:43:28;16.42;;;10.55;;
35330;SDS011;21441;52.190;20.910;2023-03-01T11:46:13;13.02;;;9.90;;
35330;SDS011;21441;52.190;20.910;2023-03-01T11:49:19;17.10;;;11.55;;
35330;SDS011;21441;52.190;20.910;2023-03-01T11:52:18;13.73;;;9.43;;
35330;SDS011;21441;52.190;20.910;2023-03-01T11:54:57;15.25;;;9.80;;
35330;SDS011;21441;52.190;20.910;2023-03-01T11:57:44;15.70;;;10.60;;
35330;SDS011;21441;52.190;20.910;2023-03-01T12:00:37;14.30;;;10.65;;
35330;SDS011;21441;52.190;20.910;2023-03-01T12:03:16;19.77;;;12.43;;
35330;SDS011;21441;52.190;20.910;2023-03-01T12:09:02;19.23;;;12.27;;
35330;SDS011;21441;52.190;20.910;2023-03-01T12:11:52;14.65;;;10.90;;
35330;SDS011;21441;52.190;20.910;2023-03-01T12:14:39;17.38;;;11.45;;
35330;SDS011;21441;52.190;20.910;2023-03-01T12:17:26;14.20;;;10.63;;
35330;SDS011;21441;52.190;20.910;2023-03-01T12:20:20;13.48;;;10.90;;
35330;SDS011;21441;52.190;20.910;2023-03-01T12:22:59;16.55;;;11.23;;
35330;SDS011;21441;52.190;20.910;2023-03-01T12:25:44;14.10;;;10.32;;
35330;SDS011;21441;52.190;20.910;2023-03-01T12:28:24;15.38;;;11.25;;
35330;SDS011;21441;52.190;20.910;2023-03-01T12:31:25;14.77;;;11.10;;
35330;SDS011;21441;52.190;20.910;2023-03-01T12:34:03;13.70;;;10.23;;
35330;SDS011;21441;52.190;20.910;2023-03-01T12:39:42;15.63;;;11.38;;
35330;SDS011;21441;52.190;20.910;2023-03-01T12:42:21;16.27;;;10.98;;
35330;SDS011;21441;52.190;20.910;2023-03-01T12:45:01;14.85;;;11.07;;
35330;SDS011;21441;52.190;20.910;2023-03-01T12:47:51;15.43;;;11.15;;
35330;SDS011;21441;52.190;20.910;2023-03-01T12:50:32;15.68;;;11.40;;
35330;SDS011;21441;52.190;20.910;2023-03-01T12:53:07;13.60;;;11.15;;
35330;SDS011;21441;52.190;20.910;2023-03-01T12:55:48;16.27;;;11.25;;
35330;SDS011;21441;52.190;20.910;2023-03-01T12:58:20;16.95;;;11.68;;
35330;SDS011;21441;52.190;20.910;2023-03-01T13:01:01;18.85;;;11.82;;
35330;SDS011;21441;52.190;20.910;2023-03-01T13:03:52;15.00;;;10.93;;
35330;SDS011;21441;52.190;20.910;2023-03-01T13:06:32;17.23;;;11.70;;
35330;SDS011;21441;52.190;20.910;2023-03-01T13:09:08;15.52;;;12.05;;
35330;SDS011;21441;52.190;20.910;2023-03-01T13:11:43;14.73;;;11.60;;
35330;SDS011;21441;52.190;20.910;2023-03-01T13:20:15;16.13;;;11.77;;
35330;SDS011;21441;52.190;20.910;2023-03-01T13:22:45;16.33;;;11.98;;
35330;SDS011;21441;52.190;20.910;2023-03-01T13:25:14;17.60;;;12.82;;
35330;SDS011;21441;52.190;20.910;2023-03-01T13:27:44;16.52;;;12.13;;
35330;SDS011;21441;52.190;20.910;2023-03-01T13:30:38;18.92;;;12.48;;
35330;SDS011;21441;52.190;20.910;2023-03-01T13:41:59;17.17;;;13.48;;
35330;SDS011;21441;52.190;20.910;2023-03-01T13:44:30;19.20;;;12.73;;
35330;SDS011;21441;52.190;20.910;2023-03-01T13:47:03;15.93;;;11.32;;
35330;SDS011;21441;52.190;20.910;2023-03-01T13:49:43;19.92;;;13.05;;
35330;SDS011;21441;52.190;20.910;2023-03-01T13:52:27;17.75;;;12.82;;
35330;SDS011;21441;52.190;20.910;2023-03-01T13:55:03;15.90;;;12.17;;
35330;SDS011;21441;52.190;20.910;2023-03-01T13:57:33;21.33;;;14.30;;
35330;SDS011;21441;52.190;20.910;2023-03-01T14:00:05;18.52;;;12.48;;
35330;SDS011;21441;52.190;20.910;2023-03-01T14:02:33;17.58;;;12.13;;
35330;SDS011;21441;52.190;20.910;2023-03-01T14:05:05;19.90;;;13.63;;
35330;SDS011;21441;52.190;20.910;2023-03-01T14:07:37;18.52;;;12.57;;
35330;SDS011;21441;52.190;20.910;2023-03-01T14:10:07;19.50;;;12.38;;
35330;SDS011;21441;52.190;20.910;2023-03-01T14:12:39;21.58;;;13.90;;
35330;SDS011;21441;52.190;20.910;2023-03-01T14:15:14;16.73;;;11.95;;
35330;SDS011;21441;52.190;20.910;2023-03-01T14:17:50;23.75;;;12.68;;
35330;SDS011;21441;52.190;20.910;2023-03-01T14:20:25;19.95;;;13.18;;
35330;SDS011;21441;52.190;20.910;2023-03-01T14:22:54;18.02;;;13.52;;
35330;SDS011;21441;52.190;20.910;2023-03-01T14:25:25;18.63;;;12.70;;
35330;SDS011;21441;52.190;20.910;2023-03-01T14:27:59;15.45;;;11.45;;
35330;SDS011;21441;52.190;20.910;2023-03-01T14:30:31;18.33;;;12.60;;
35330;SDS011;21441;52.190;20.910;2023-03-01T14:33:01;19.25;;;11.82;;
35330;SDS011;21441;52.190;20.910;2023-03-01T14:35:33;19.73;;;13.07;;
35330;SDS011;21441;52.190;20.910;2023-03-01T14:38:02;21.70;;;13.25;;
35330;SDS011;21441;52.190;20.910;2023-03-01T14:40:31;21.02;;;13.05;;
35330;SDS011;21441;52.190;20.910;2023-03-01T14:43:01;19.90;;;13.35;;
35330;SDS011;21441;52.190;20.910;2023-03-01T14:45:36;19.17;;;12.68;;
35330;SDS011;21441;52.190;20.910;2023-03-01T14:48:04;21.77;;;12.93;;
35330;SDS011;21441;52.190;20.910;2023-03-01T14:50:35;18.67;;;12.88;;
35330;SDS011;21441;52.190;20.910;2023-03-01T14:53:12;18.00;;;12.02;;
35330;SDS011;21441;52.190;20.910;2023-03-01T14:55:45;20.70;;;12.77;;
35330;SDS011;21441;52.190;20.910;2023-03-01T14:58:15;16.60;;;12.05;;
35330;SDS011;21441;52.190;20.910;2023-03-01T15:00:47;21.33;;;13.05;;
35330;SDS011;21441;52.190;20.910;2023-03-01T15:03:18;20.33;;;12.52;;
35330;SDS011;21441;52.190;20.910;2023-03-01T15:05:53;21.85;;;13.60;;